createdAt,value
2019-03-05T00:01:00.784Z,60.90
2019-03-05T00:03:04.156Z,60.00
2019-03-05T00:05:07.086Z,60.00
2019-03-05T00:07:09.996Z,60.00
2019-03-05T00:09:12.956Z,60.70
2019-03-05T00:11:16.664Z,59.80
2019-03-05T00:13:20.360Z,59.80
2019-03-05T00:15:24.407Z,59.70
2019-03-05T00:17:27.369Z,59.70
2019-03-05T00:19:31.053Z,59.70
2019-03-05T00:21:34.789Z,59.70
2019-03-05T00:23:44.329Z,60.30
2019-03-05T00:25:47.243Z,59.70
2019-03-05T00:27:55.100Z,59.70
2019-03-05T00:30:16.396Z,59.60
2019-03-05T00:32:20.200Z,59.50
2019-03-05T00:34:29.535Z,59.50
2019-03-05T00:36:35.068Z,59.50
2019-03-05T00:38:45.609Z,59.40
2019-03-05T00:41:12.879Z,59.50
2019-03-05T00:43:17.528Z,59.30
2019-03-05T00:45:23.050Z,59.30
2019-03-05T00:47:33.280Z,59.40
2019-03-05T00:49:52.632Z,59.50
2019-03-05T00:51:56.267Z,59.40
2019-03-05T00:54:10.859Z,59.40
2019-03-05T00:56:15.377Z,59.30
2019-03-05T00:58:22.911Z,59.30
2019-03-05T01:00:48.648Z,59.40
2019-03-05T01:03:00.949Z,59.30
2019-03-05T01:05:16.471Z,59.20
2019-03-05T01:07:19.436Z,59.20
2019-03-05T01:09:22.361Z,59.10
2019-03-05T01:11:25.294Z,59.10
2019-03-05T01:13:28.244Z,59.10
2019-03-05T01:15:32.077Z,58.40
2019-03-05T01:17:35.017Z,58.90
2019-03-05T01:19:38.128Z,58.80
2019-03-05T01:21:41.828Z,58.70
2019-03-05T01:23:44.755Z,58.60
2019-03-05T01:25:47.703Z,58.50
2019-03-05T01:27:51.004Z,58.40
2019-03-05T01:29:53.942Z,58.40
2019-03-05T01:31:57.766Z,58.30
2019-03-05T01:34:02.252Z,58.20
2019-03-05T01:36:05.207Z,58.20
2019-03-05T01:38:08.268Z,58.10
2019-03-05T01:40:11.193Z,58.10
2019-03-05T01:42:14.319Z,58.10
2019-03-05T01:44:18.055Z,58.00
2019-03-05T01:46:21.003Z,57.90
2019-03-05T01:48:24.703Z,57.90
2019-03-05T01:50:28.424Z,57.80
2019-03-05T01:52:31.339Z,57.80
2019-03-05T01:54:34.471Z,57.70
2019-03-05T01:56:38.311Z,57.70
2019-03-05T01:58:41.227Z,57.60
2019-03-05T02:00:44.260Z,57.60
2019-03-05T02:02:47.288Z,57.50
2019-03-05T02:04:50.207Z,57.40
2019-03-05T02:06:53.196Z,57.40
2019-03-05T02:08:56.159Z,57.30
2019-03-05T02:10:59.840Z,57.30
2019-03-05T02:13:02.767Z,57.20
2019-03-05T02:15:05.858Z,57.20
2019-03-05T02:17:08.779Z,57.20
2019-03-05T02:19:24.422Z,57.20
2019-03-05T02:21:27.806Z,57.10
2019-03-05T02:23:31.500Z,57.10
2019-03-05T02:25:53.883Z,57.00
2019-03-05T02:27:56.842Z,57.10
2019-03-05T02:30:01.420Z,57.00
2019-03-05T02:32:06.055Z,56.90
2019-03-05T02:34:29.621Z,57.00
2019-03-05T02:36:52.981Z,56.90
2019-03-05T02:39:18.368Z,56.70
2019-03-05T02:41:34.495Z,56.70
2019-03-05T02:43:57.911Z,56.70
2019-03-05T02:46:07.568Z,56.70
2019-03-05T02:48:12.992Z,56.60
2019-03-05T02:50:53.989Z,57.20
2019-03-05T02:53:12.398Z,56.40
2019-03-05T02:55:19.779Z,56.40
2019-03-05T02:57:22.236Z,56.40
2019-03-05T02:59:25.194Z,56.50
2019-03-05T03:01:31.668Z,56.50
2019-03-05T03:03:35.333Z,56.50
2019-03-05T03:05:38.251Z,56.40
2019-03-05T03:07:41.190Z,56.30
2019-03-05T03:09:57.781Z,56.30
2019-03-05T03:12:00.796Z,56.20
2019-03-05T03:14:03.950Z,56.20
2019-03-05T03:16:06.886Z,56.20
2019-03-05T03:18:09.803Z,56.10
2019-03-05T03:20:12.738Z,56.10
2019-03-05T03:22:15.662Z,56.70
2019-03-05T03:24:18.584Z,56.10
2019-03-05T03:26:22.367Z,56.20
2019-03-05T03:28:26.054Z,56.20
2019-03-05T03:30:29.007Z,56.00
2019-03-05T03:32:32.059Z,56.10
2019-03-05T03:34:35.862Z,56.10
2019-03-05T03:36:39.539Z,56.10
2019-03-05T03:38:43.362Z,56.10
2019-03-05T03:40:47.035Z,56.10
2019-03-05T03:42:49.970Z,56.10
2019-03-05T03:44:52.926Z,56.00
2019-03-05T03:46:56.595Z,56.10
2019-03-05T03:48:59.611Z,56.00
2019-03-05T03:51:03.513Z,56.10
2019-03-05T03:53:07.212Z,56.10
2019-03-05T03:55:11.589Z,56.10
2019-03-05T03:57:14.542Z,56.10
2019-03-05T03:59:18.285Z,56.70
2019-03-05T04:01:22.729Z,56.10
2019-03-05T04:03:26.536Z,56.10
2019-03-05T04:05:30.219Z,56.10
2019-03-05T04:07:33.911Z,56.10
2019-03-05T04:09:38.372Z,56.10
2019-03-05T04:11:41.323Z,56.10
2019-03-05T04:13:45.027Z,56.20
2019-03-05T04:15:48.833Z,56.30
2019-03-05T04:17:52.511Z,56.30
2019-03-05T04:19:56.199Z,56.60
2019-03-05T04:21:59.137Z,56.20
2019-03-05T04:24:02.059Z,56.30
2019-03-05T04:26:04.995Z,56.30
2019-03-05T04:28:08.780Z,56.30
2019-03-05T04:30:13.205Z,56.30
2019-03-05T04:32:16.120Z,56.30
2019-03-05T04:34:19.163Z,56.30
2019-03-05T04:36:22.130Z,56.30
2019-03-05T04:38:25.042Z,56.30
2019-03-05T04:40:28.113Z,56.30
2019-03-05T04:42:31.812Z,56.20
2019-03-05T04:44:36.314Z,56.20
2019-03-05T04:46:40.159Z,56.20
2019-03-05T04:48:43.084Z,56.20
2019-03-05T04:51:03.627Z,56.20
2019-03-05T04:53:06.594Z,56.20
2019-03-05T04:55:10.293Z,56.20
2019-03-05T04:57:14.199Z,56.20
2019-03-05T04:59:17.980Z,56.90
2019-03-05T05:01:21.668Z,56.30
2019-03-05T05:03:25.237Z,56.30
2019-03-05T05:05:28.386Z,56.30
2019-03-05T05:07:31.312Z,56.30
2019-03-05T05:09:34.263Z,56.40
2019-03-05T05:11:37.174Z,56.40
2019-03-05T05:13:40.109Z,56.50
2019-03-05T05:15:43.914Z,56.60
2019-03-05T05:17:47.593Z,56.50
2019-03-05T05:19:50.512Z,56.50
2019-03-05T05:21:53.611Z,56.50
2019-03-05T05:23:56.561Z,56.60
2019-03-05T05:26:00.246Z,56.70
2019-03-05T05:28:03.244Z,56.60
2019-03-05T05:30:06.920Z,56.80
2019-03-05T05:32:10.611Z,57.20
2019-03-05T05:34:13.566Z,56.70
2019-03-05T05:36:16.487Z,56.70
2019-03-05T05:38:20.178Z,56.70
2019-03-05T05:40:26.387Z,56.80
2019-03-05T05:42:29.311Z,56.70
2019-03-05T05:44:32.448Z,56.80
2019-03-05T05:46:36.146Z,56.90
2019-03-05T05:48:39.766Z,56.90
2019-03-05T05:50:42.699Z,56.90
2019-03-05T05:52:45.639Z,56.90
2019-03-05T05:54:48.568Z,56.90
2019-03-05T05:56:52.282Z,57.00
2019-03-05T05:58:56.100Z,56.90
2019-03-05T06:00:59.169Z,56.90
2019-03-05T06:03:02.846Z,56.90
2019-03-05T06:05:05.990Z,56.90
2019-03-05T06:07:08.914Z,56.90
2019-03-05T06:09:11.855Z,56.80
2019-03-05T06:11:14.814Z,56.70
2019-03-05T06:13:17.739Z,56.80
2019-03-05T06:15:20.765Z,56.70
2019-03-05T06:17:23.725Z,56.70
2019-03-05T06:19:27.424Z,56.60
2019-03-05T06:21:30.349Z,56.50
2019-03-05T06:23:33.374Z,56.50
2019-03-05T06:25:36.919Z,56.40
2019-03-05T06:27:40.711Z,56.40
2019-03-05T06:29:44.411Z,56.90
2019-03-05T06:31:48.082Z,56.30
2019-03-05T06:33:51.011Z,56.30
2019-03-05T06:35:54.062Z,56.10
2019-03-05T06:37:57.747Z,56.20
2019-03-05T06:40:00.738Z,56.00
2019-03-05T06:42:03.626Z,56.10
2019-03-05T06:44:09.378Z,56.00
2019-03-05T06:46:10.278Z,55.90
2019-03-05T06:48:13.459Z,55.90
2019-03-05T06:50:17.260Z,56.00
2019-03-05T06:52:20.194Z,56.00
2019-03-05T06:54:23.891Z,56.10
2019-03-05T06:56:27.578Z,56.10
2019-03-05T06:58:31.269Z,56.10
2019-03-05T07:00:34.991Z,55.80
2019-03-05T07:02:38.794Z,56.10
2019-03-05T07:04:42.471Z,56.10
2019-03-05T07:06:59.322Z,56.10
2019-03-05T07:12:54.836Z,55.90
2019-03-05T07:22:49.580Z,55.60
2019-03-05T07:32:42.543Z,54.10
2019-03-05T07:52:43.023Z,53.90
2019-03-05T08:02:41.408Z,54.00
2019-03-05T08:12:50.734Z,54.00
2019-03-05T08:22:53.157Z,54.10
2019-03-05T08:40:38.635Z,56.10
2019-03-05T08:52:37.218Z,56.00
2019-03-05T09:02:48.043Z,54.80
2019-03-05T09:04:51.597Z,55.60
2019-03-05T09:12:38.159Z,55.60
2019-03-05T09:22:38.816Z,54.10
2019-03-05T09:32:38.165Z,53.50
2019-03-05T09:42:40.124Z,53.50
2019-03-05T09:44:53.196Z,54.30
2019-03-05T09:52:38.543Z,54.30
2019-03-05T10:02:37.655Z,54.10
2019-03-05T10:12:42.418Z,54.30
2019-03-05T10:22:39.730Z,54.30
2019-03-05T10:32:39.799Z,55.70
2019-03-05T10:42:37.714Z,55.60
2019-03-05T10:52:38.218Z,57.00
2019-03-05T11:02:40.101Z,56.70
2019-03-05T11:12:28.087Z,57.00
2019-03-05T11:14:31.784Z,58.80
2019-03-05T11:16:35.575Z,59.60
2019-03-05T11:18:39.254Z,61.00
2019-03-05T11:20:42.507Z,60.90
2019-03-05T11:22:45.432Z,61.60
2019-03-05T11:24:49.878Z,62.60
2019-03-05T11:26:53.595Z,63.00
2019-03-05T11:28:56.530Z,63.00
2019-03-05T11:30:59.484Z,63.30
2019-03-05T11:33:02.443Z,63.80
2019-03-05T11:35:05.471Z,64.00
2019-03-05T11:37:08.386Z,64.10
2019-03-05T11:39:12.249Z,64.30
2019-03-05T11:41:15.184Z,64.30
2019-03-05T11:43:20.181Z,64.50
2019-03-05T11:45:25.649Z,64.70
2019-03-05T11:47:28.572Z,64.60
2019-03-05T11:49:31.723Z,64.70
2019-03-05T11:51:34.667Z,64.80
2019-03-05T11:53:38.847Z,65.00
2019-03-05T11:55:42.216Z,64.90
2019-03-05T11:57:45.131Z,65.20
2019-03-05T11:59:48.283Z,65.20
2019-03-05T12:01:51.807Z,65.30
2019-03-05T12:03:55.627Z,65.30
2019-03-05T12:05:58.650Z,65.30
2019-03-05T12:08:03.095Z,65.80
2019-03-05T12:10:06.027Z,65.80
2019-03-05T12:12:18.887Z,66.00
2019-03-05T12:22:38.015Z,66.00
2019-03-05T12:32:40.437Z,63.00
2019-03-05T12:42:38.315Z,62.90
2019-03-05T12:52:38.690Z,62.80
2019-03-05T13:02:39.168Z,63.00
2019-03-05T13:12:40.196Z,63.30
2019-03-05T13:14:53.467Z,63.40
2019-03-05T13:22:42.565Z,64.90
2019-03-05T13:24:54.604Z,64.30
2019-03-05T13:32:39.984Z,65.30
2019-03-05T13:42:39.271Z,64.00
2019-03-05T13:52:42.474Z,64.00
2019-03-05T13:54:49.696Z,64.90
2019-03-05T13:57:05.036Z,65.80
2019-03-05T13:59:33.416Z,66.30
2019-03-05T14:01:37.135Z,66.60
2019-03-05T14:03:40.910Z,66.70
2019-03-05T14:06:02.315Z,66.90
2019-03-05T14:08:17.401Z,66.90
2019-03-05T14:10:20.374Z,66.90
2019-03-05T14:12:23.318Z,66.90
2019-03-05T14:14:26.362Z,67.00
2019-03-05T14:16:29.286Z,66.90
2019-03-05T14:18:32.331Z,66.80
2019-03-05T14:20:35.358Z,66.60
2019-03-05T14:22:38.988Z,65.40
2019-03-05T14:24:42.679Z,65.30
2019-03-05T14:26:46.488Z,65.10
2019-03-05T14:28:50.172Z,65.00
2019-03-05T14:30:53.111Z,64.90
2019-03-05T14:32:56.076Z,64.80
2019-03-05T14:34:58.996Z,64.70
2019-03-05T14:37:01.972Z,64.70
2019-03-05T14:39:05.025Z,64.60
2019-03-05T14:41:08.097Z,64.60
2019-03-05T14:43:11.819Z,64.30
2019-03-05T14:45:16.525Z,64.20
2019-03-05T14:47:19.425Z,64.10
2019-03-05T14:49:22.358Z,64.00
2019-03-05T14:51:25.354Z,64.00
2019-03-05T14:53:28.335Z,64.00
2019-03-05T14:55:31.286Z,64.00
2019-03-05T14:57:34.342Z,64.10
2019-03-05T14:59:37.277Z,64.00
2019-03-05T15:01:40.204Z,64.10
2019-03-05T15:03:43.147Z,64.10
2019-03-05T15:05:46.996Z,63.90
2019-03-05T15:07:49.853Z,63.90
2019-03-05T15:09:52.812Z,63.70
2019-03-05T15:11:55.846Z,63.60
2019-03-05T15:13:58.794Z,63.50
2019-03-05T15:16:02.489Z,63.30
2019-03-05T15:18:06.294Z,63.10
2019-03-05T15:20:09.991Z,62.80
2019-03-05T15:22:13.751Z,62.80
2019-03-05T15:24:16.721Z,62.70
2019-03-05T15:26:19.719Z,62.60
2019-03-05T15:28:22.665Z,62.50
2019-03-05T15:30:28.630Z,62.30
2019-03-05T15:32:28.556Z,62.00
2019-03-05T15:34:31.615Z,61.90
2019-03-05T15:36:35.493Z,61.80
2019-03-05T15:38:39.327Z,61.50
2019-03-05T15:40:42.273Z,61.50
2019-03-05T15:42:46.002Z,61.30
2019-03-05T15:44:49.704Z,61.10
2019-03-05T15:46:52.632Z,61.00
2019-03-05T15:48:55.680Z,60.70
2019-03-05T15:50:58.585Z,60.60
2019-03-05T15:53:01.584Z,60.10
2019-03-05T15:55:04.844Z,60.00
2019-03-05T15:57:07.884Z,59.90
2019-03-05T15:59:11.614Z,59.70
2019-03-05T16:01:22.037Z,59.70
2019-03-05T16:03:18.304Z,59.80
2019-03-05T16:05:22.087Z,59.40
2019-03-05T16:07:24.949Z,59.50
2019-03-05T16:09:28.668Z,59.50
2019-03-05T16:11:34.118Z,59.50
2019-03-05T16:13:35.311Z,59.50
2019-03-05T16:15:38.268Z,59.40
2019-03-05T16:17:41.298Z,59.40
2019-03-05T16:19:44.999Z,59.40
2019-03-05T16:21:48.085Z,59.40
2019-03-05T16:23:51.783Z,59.50
2019-03-05T16:25:55.480Z,59.50
2019-03-05T16:28:02.259Z,59.50
2019-03-05T16:30:02.148Z,59.50
2019-03-05T16:32:06.640Z,59.50
2019-03-05T16:34:13.127Z,59.50
2019-03-05T16:36:32.079Z,59.40
2019-03-05T16:38:55.130Z,59.40
2019-03-05T16:41:16.991Z,59.30
2019-03-05T16:43:34.334Z,59.30
2019-03-05T16:45:49.031Z,59.20
2019-03-05T16:47:57.742Z,59.20
2019-03-05T16:50:16.279Z,59.20
2019-03-05T16:52:21.809Z,59.10
2019-03-05T16:54:25.587Z,59.10
2019-03-05T16:56:31.948Z,59.10
2019-03-05T16:58:38.606Z,59.00
2019-03-05T17:00:49.063Z,58.90
2019-03-05T17:02:48.332Z,58.90
2019-03-05T17:04:56.907Z,58.90
2019-03-05T17:07:11.042Z,58.80
2019-03-05T17:09:14.781Z,58.70
2019-03-05T17:11:17.712Z,58.70
2019-03-05T17:13:20.671Z,58.70
2019-03-05T17:15:24.359Z,58.80
2019-03-05T17:17:27.281Z,58.60
2019-03-05T17:19:30.307Z,58.70
2019-03-05T17:21:33.253Z,58.60
2019-03-05T17:23:36.186Z,58.60
2019-03-05T17:25:39.146Z,58.60
2019-03-05T17:27:42.895Z,58.70
2019-03-05T17:29:46.596Z,59.20
2019-03-05T17:31:50.319Z,58.50
2019-03-05T17:33:53.235Z,58.50
2019-03-05T17:35:56.145Z,58.40
2019-03-05T17:37:59.884Z,58.40
2019-03-05T17:40:02.799Z,58.30
2019-03-05T17:42:05.825Z,58.30
2019-03-05T17:44:09.550Z,59.00
2019-03-05T17:46:12.471Z,58.30
2019-03-05T17:48:15.410Z,58.40
2019-03-05T17:50:18.893Z,58.40
2019-03-05T17:52:21.827Z,58.50
2019-03-05T17:54:24.768Z,58.80
2019-03-05T17:56:27.833Z,59.50
2019-03-05T17:58:30.783Z,60.30
2019-03-05T18:00:33.723Z,60.60
2019-03-05T18:02:36.687Z,60.40
2019-03-05T18:04:40.366Z,59.70
2019-03-05T18:06:44.827Z,59.30
2019-03-05T18:08:47.795Z,59.40
2019-03-05T18:10:50.715Z,59.10
2019-03-05T18:12:53.815Z,59.10
2019-03-05T18:14:56.750Z,59.00
2019-03-05T18:16:59.686Z,59.00
2019-03-05T18:19:02.900Z,59.70
2019-03-05T18:21:06.622Z,59.80
2019-03-05T18:23:09.539Z,59.80
2019-03-05T18:25:12.480Z,59.80
2019-03-05T18:27:15.422Z,59.80
2019-03-05T18:29:19.111Z,59.90
2019-03-05T18:31:22.078Z,59.80
2019-03-05T18:33:25.016Z,59.90
2019-03-05T18:35:28.687Z,60.00
2019-03-05T18:37:32.513Z,59.90
2019-03-05T18:39:35.906Z,59.90
2019-03-05T18:41:38.950Z,60.00
2019-03-05T18:43:41.974Z,60.00
2019-03-05T18:45:44.902Z,60.00
2019-03-05T18:47:47.890Z,60.00
2019-03-05T18:49:51.742Z,59.90
2019-03-05T18:51:55.420Z,60.00
2019-03-05T18:53:58.532Z,59.90
2019-03-05T18:56:02.499Z,60.00
2019-03-05T18:58:06.505Z,60.00
2019-03-05T19:00:12.948Z,60.10
2019-03-05T19:02:15.884Z,60.00
2019-03-05T19:04:19.771Z,60.20
2019-03-05T19:06:23.697Z,60.30
2019-03-05T19:08:27.020Z,60.20
2019-03-05T19:10:30.253Z,60.30
2019-03-05T19:12:34.183Z,60.50
2019-03-05T19:14:37.209Z,60.30
2019-03-05T19:16:40.778Z,60.40
2019-03-05T19:18:44.054Z,60.60
2019-03-05T19:20:47.213Z,60.70
2019-03-05T19:22:50.973Z,61.00
2019-03-05T19:24:53.892Z,60.70
2019-03-05T19:26:56.819Z,60.70
2019-03-05T19:29:00.027Z,60.70
2019-03-05T19:31:02.948Z,60.70
2019-03-05T19:33:05.871Z,60.80
2019-03-05T19:35:08.815Z,60.90
2019-03-05T19:37:12.511Z,61.00
2019-03-05T19:39:15.438Z,60.90
2019-03-05T19:41:18.525Z,61.00
2019-03-05T19:43:21.455Z,61.00
2019-03-05T19:45:24.473Z,61.10
2019-03-05T19:47:28.186Z,61.30
2019-03-05T19:49:31.196Z,61.20
2019-03-05T19:51:34.274Z,61.30
2019-03-05T19:53:37.529Z,61.40
2019-03-05T19:55:41.465Z,61.60
2019-03-05T19:57:44.630Z,61.50
2019-03-05T19:59:47.916Z,61.60
2019-03-05T20:01:51.306Z,61.80
2019-03-05T20:03:54.597Z,61.80
2019-03-05T20:05:57.556Z,61.90
2019-03-05T20:08:02.097Z,62.90
2019-03-05T20:10:06.313Z,62.30
2019-03-05T20:12:09.327Z,62.20
2019-03-05T20:14:12.365Z,62.20
2019-03-05T20:16:16.095Z,62.20
2019-03-05T20:18:19.162Z,62.20
2019-03-05T20:20:22.884Z,62.60
2019-03-05T20:22:25.950Z,62.50
2019-03-05T20:24:29.695Z,62.80
2019-03-05T20:26:32.764Z,63.00
2019-03-05T20:28:35.951Z,63.80
2019-03-05T20:30:38.708Z,63.20
2019-03-05T20:32:41.740Z,63.20
2019-03-05T20:34:46.599Z,63.30
2019-03-05T20:36:47.831Z,63.40
2019-03-05T20:38:51.727Z,63.50
2019-03-05T20:40:54.660Z,63.50
2019-03-05T20:42:57.596Z,63.50
2019-03-05T20:45:00.781Z,63.60
2019-03-05T20:47:03.730Z,63.70
2019-03-05T20:49:06.655Z,63.80
2019-03-05T20:51:10.478Z,63.90
2019-03-05T20:53:13.439Z,63.80
2019-03-05T20:55:17.279Z,64.00
2019-03-05T20:57:20.348Z,63.90
2019-03-05T20:59:23.357Z,64.10
2019-03-05T21:01:26.535Z,64.20
2019-03-05T21:03:29.550Z,64.30
2019-03-05T21:05:37.065Z,64.40
2019-03-05T21:07:40.044Z,64.40
2019-03-05T21:09:43.895Z,64.70
2019-03-05T21:11:47.557Z,64.70
2019-03-05T21:13:50.659Z,64.80
2019-03-05T21:15:53.602Z,64.90
2019-03-05T21:17:56.545Z,65.00
2019-03-05T21:19:59.502Z,65.00
2019-03-05T21:22:03.194Z,65.20
2019-03-05T21:24:06.935Z,65.30
2019-03-05T21:26:09.895Z,65.30
2019-03-05T21:28:12.826Z,65.40
2019-03-05T21:30:19.431Z,65.40
2019-03-05T21:32:23.245Z,65.60
2019-03-05T21:34:26.954Z,65.60
2019-03-05T21:36:30.849Z,65.50
2019-03-05T21:38:33.783Z,65.60
2019-03-05T21:40:37.496Z,65.60
2019-03-05T21:42:40.566Z,65.60
2019-03-05T21:44:44.252Z,65.60
2019-03-05T21:46:47.174Z,65.60
2019-03-05T21:48:51.000Z,65.70
2019-03-05T21:50:54.802Z,65.70
2019-03-05T21:52:58.500Z,65.70
2019-03-05T21:55:02.227Z,65.70
2019-03-05T21:57:05.157Z,65.70
2019-03-05T21:59:08.169Z,65.70
2019-03-05T22:01:11.898Z,65.80
2019-03-05T22:03:14.823Z,65.70
2019-03-05T22:05:17.756Z,65.80
2019-03-05T22:07:20.818Z,65.80
2019-03-05T22:09:24.530Z,65.90
2019-03-05T22:11:27.460Z,65.80
2019-03-05T22:13:30.418Z,65.70
2019-03-05T22:15:33.356Z,65.70
2019-03-05T22:17:37.051Z,65.80
2019-03-05T22:19:40.012Z,65.60
2019-03-05T22:21:43.032Z,65.70
2019-03-05T22:23:45.982Z,65.60
2019-03-05T22:25:48.927Z,65.70
2019-03-05T22:27:51.852Z,65.80
2019-03-05T22:29:54.899Z,65.60
2019-03-05T22:31:57.859Z,65.70
2019-03-05T22:34:01.530Z,65.70
2019-03-05T22:36:05.338Z,65.70
2019-03-05T22:38:08.433Z,65.60
2019-03-05T22:40:11.399Z,65.60
2019-03-05T22:42:15.218Z,65.70
2019-03-05T22:44:18.160Z,65.70
2019-03-05T22:46:21.115Z,65.80
2019-03-05T22:48:24.040Z,65.80
2019-03-05T22:50:27.750Z,66.00
2019-03-05T22:52:31.853Z,66.80
2019-03-05T22:54:35.555Z,66.00
2019-03-05T22:56:38.470Z,65.90
2019-03-05T22:58:41.462Z,66.00
2019-03-05T23:00:48.311Z,65.90
2019-03-05T23:02:51.238Z,66.00
2019-03-05T23:04:54.585Z,66.00
2019-03-05T23:06:58.255Z,66.80
2019-03-05T23:09:01.202Z,66.00
2019-03-05T23:11:04.241Z,66.10
2019-03-05T23:13:07.190Z,66.20
2019-03-05T23:15:10.115Z,66.30
2019-03-05T23:17:13.302Z,66.30
2019-03-05T23:19:16.223Z,66.40
2019-03-05T23:21:19.167Z,66.50
2019-03-05T23:23:22.081Z,66.60
2019-03-05T23:25:25.083Z,66.60
2019-03-05T23:27:28.018Z,66.70
2019-03-05T23:29:31.437Z,66.70
2019-03-05T23:31:34.361Z,66.80
2019-03-05T23:33:38.168Z,67.70
2019-03-05T23:35:41.090Z,66.80
2019-03-05T23:37:44.025Z,66.90
2019-03-05T23:39:47.860Z,67.80
2019-03-05T23:41:51.664Z,67.00
2019-03-05T23:43:55.342Z,67.10
2019-03-05T23:45:58.279Z,67.10
2019-03-05T23:48:01.194Z,67.10
2019-03-05T23:50:05.140Z,67.10
2019-03-05T23:52:08.219Z,67.20
2019-03-05T23:54:11.142Z,67.20
2019-03-05T23:56:14.195Z,67.20
2019-03-05T23:58:17.961Z,67.40
